KQEY

Geumsan Rws

Geumsan Rws, South Korea
METAR KQEY 191700Z AUTO 05001KT 9999 SCT055 23/20 A2955 RMK A02 TSNO
Observed Flight Rules
Aug-19 @ 17:00 UTC (11 minutes ago) Visual Flight Rules
Wind Visibility Clouds
50° at 1 knots 10,000+ meters
  • Scattered at 5,500' AGL
Temperatures Readings
Current 23°C / 73°F
Dewpoint 20°C / 68°F
Humidity 83%
Altimeter 29.55" Hg
Pressure 1001 hPa
METAR KQEY 191700Z AUTO 05001KT 9999 SCT055 23/20 A2955 RMK A02 TSNO
Observed Flight Rules
Aug-19 @ 17:00 UTC
(11 minutes ago)
VFR
Wind Visibility
50° at 1 knots 10,000+ meters
Clouds
  • Scattered at 5,500' AGL
Temperature Dewpoint
23°C / 73°F 20°C / 68°F
Humidity Altimeter Pressure
83% 29.55" Hg 1001 hPa